createdAt,value
2023-03-03T00:00:38.882Z,101773.41
2023-03-03T00:03:14.081Z,101726.44
2023-03-03T00:05:45.574Z,101764.69
2023-03-03T00:08:18.816Z,101739.06
2023-03-03T00:10:50.336Z,101770.06
2023-03-03T00:13:24.443Z,101762.34
2023-03-03T00:16:12.654Z,101766.06
2023-03-03T00:18:46.958Z,101758.28
2023-03-03T00:21:25.957Z,101752.13
2023-03-03T00:24:37.990Z,101760.91
2023-03-03T00:27:27.372Z,101758.16
2023-03-03T00:30:00.813Z,101754.38
2023-03-03T00:32:44.062Z,101756.97
2023-03-03T00:35:30.084Z,101763.94
2023-03-03T00:38:10.928Z,101740.09
2023-03-03T00:40:42.620Z,101759.44
2023-03-03T00:43:25.726Z,101756.78
2023-03-03T00:45:57.536Z,101758.47
2023-03-03T00:48:38.050Z,101762.91
2023-03-03T00:51:31.663Z,101759.25
2023-03-03T00:54:03.060Z,101740.44
2023-03-03T00:56:34.315Z,101762.72
2023-03-03T00:59:05.605Z,101755.84
2023-03-03T01:01:36.930Z,101757.69
2023-03-03T01:04:08.321Z,101747.22
2023-03-03T01:06:39.665Z,101721.56
2023-03-03T01:09:10.932Z,101721.66
2023-03-03T01:11:42.500Z,101716.41
2023-03-03T01:14:14.100Z,101741.19
2023-03-03T01:16:45.397Z,101732.16
2023-03-03T01:19:16.916Z,101743.44
2023-03-03T01:21:48.254Z,101731.78
2023-03-03T01:24:19.693Z,101748.69
2023-03-03T01:26:51.031Z,101719.53
2023-03-03T01:29:22.347Z,101747.13
2023-03-03T01:31:54.693Z,101741.84
2023-03-03T01:34:26.082Z,101740.94
2023-03-03T01:36:57.380Z,101730.19
2023-03-03T01:39:28.665Z,101680.44
2023-03-03T01:42:00.111Z,101731.03
2023-03-03T01:44:31.386Z,101730.38
2023-03-03T01:47:17.422Z,101703.94
2023-03-03T01:49:58.404Z,101712.94
2023-03-03T01:52:46.900Z,101725.44
2023-03-03T01:55:25.439Z,101718.38
2023-03-03T01:58:01.767Z,101715.69
2023-03-03T02:00:35.991Z,101718.31
2023-03-03T02:03:07.679Z,101708.69
2023-03-03T02:05:41.989Z,101710.19
2023-03-03T02:08:17.630Z,101717.13
2023-03-03T02:10:48.983Z,101691.44
2023-03-03T02:13:20.370Z,101701.38
2023-03-03T02:15:51.799Z,101702.28
2023-03-03T02:18:23.194Z,101688.06
2023-03-03T02:21:07.821Z,101712.00
2023-03-03T02:23:57.438Z,101712.09
2023-03-03T02:26:31.798Z,101707.78
2023-03-03T02:29:03.924Z,101697.16
2023-03-03T02:31:35.581Z,101708.78
2023-03-03T02:34:06.951Z,101680.50
2023-03-03T02:36:39.550Z,101702.72
2023-03-03T02:39:19.106Z,101700.06
2023-03-03T02:42:28.819Z,101699.09
2023-03-03T02:45:00.204Z,101669.66
2023-03-03T02:47:31.460Z,101652.59
2023-03-03T02:50:02.772Z,101698.81
2023-03-03T02:52:34.030Z,101705.94
2023-03-03T02:55:05.936Z,101707.53
2023-03-03T02:57:37.180Z,101704.78
2023-03-03T03:00:09.131Z,101704.84
2023-03-03T03:02:40.399Z,101707.63
2023-03-03T03:05:11.772Z,101711.03
2023-03-03T03:07:43.021Z,101706.41
2023-03-03T03:10:14.647Z,101703.69
2023-03-03T03:12:45.932Z,101709.66
2023-03-03T03:15:17.196Z,101703.53
2023-03-03T03:17:48.451Z,101705.13
2023-03-03T03:20:19.743Z,101677.59
2023-03-03T03:22:51.038Z,101690.78
2023-03-03T03:25:22.327Z,101679.91
2023-03-03T03:27:53.603Z,101692.38
2023-03-03T03:30:24.949Z,101678.34
2023-03-03T03:32:56.203Z,101722.81
2023-03-03T03:35:28.389Z,101722.00
2023-03-03T03:37:59.687Z,101694.34
2023-03-03T03:40:31.049Z,101723.19
2023-03-03T03:43:02.312Z,101722.91
2023-03-03T03:45:33.870Z,101732.34
2023-03-03T03:48:05.363Z,101728.59
2023-03-03T03:50:36.977Z,101735.63
2023-03-03T03:53:09.357Z,101737.19
2023-03-03T03:55:40.716Z,101720.34
2023-03-03T03:58:14.427Z,101728.34
2023-03-03T04:00:46.678Z,101715.84
2023-03-03T04:03:18.212Z,101727.56
2023-03-03T04:05:52.628Z,101722.28
2023-03-03T04:08:23.949Z,101707.94
2023-03-03T04:10:55.219Z,101731.75
2023-03-03T04:13:28.859Z,101724.69
2023-03-03T04:16:01.048Z,101710.81
2023-03-03T04:18:32.459Z,101713.47
2023-03-03T04:21:04.556Z,101711.00
2023-03-03T04:23:35.813Z,101707.63
2023-03-03T04:26:08.243Z,101695.00
2023-03-03T04:28:39.556Z,101707.25
2023-03-03T04:31:11.117Z,101708.09
2023-03-03T04:33:42.422Z,101700.22
2023-03-03T04:36:13.713Z,101704.72
2023-03-03T04:38:45.169Z,101686.28
2023-03-03T04:41:16.898Z,101701.50
2023-03-03T04:43:48.169Z,101693.47
2023-03-03T04:46:19.747Z,101685.06
2023-03-03T04:48:51.319Z,101694.69
2023-03-03T04:51:23.095Z,101682.00
2023-03-03T04:53:54.408Z,101690.00
2023-03-03T04:56:25.684Z,101691.69
2023-03-03T04:58:57.516Z,101695.19
2023-03-03T05:01:28.843Z,101683.56
2023-03-03T05:04:00.127Z,101678.22
2023-03-03T05:06:31.392Z,101681.06
2023-03-03T05:09:02.762Z,101703.19
2023-03-03T05:11:34.028Z,101704.03
2023-03-03T05:14:05.298Z,101703.00
2023-03-03T05:16:36.663Z,101704.84
2023-03-03T05:19:08.009Z,101685.34
2023-03-03T05:21:42.689Z,101706.75
2023-03-03T05:24:14.527Z,101714.72
2023-03-03T05:26:46.010Z,101703.84
2023-03-03T05:29:17.377Z,101710.81
2023-03-03T05:31:48.719Z,101699.97
2023-03-03T05:34:20.092Z,101724.06
2023-03-03T05:36:51.668Z,101729.28
2023-03-03T05:39:23.394Z,101680.50
2023-03-03T05:41:55.865Z,101710.97
2023-03-03T05:44:27.946Z,101720.31
2023-03-03T05:46:59.498Z,101719.91
2023-03-03T05:49:30.821Z,101703.78
2023-03-03T05:52:02.253Z,101717.13
2023-03-03T05:54:33.645Z,101698.78
2023-03-03T05:57:04.914Z,101718.44
2023-03-03T05:59:36.195Z,101714.31
2023-03-03T06:02:07.709Z,101717.03
2023-03-03T06:04:39.865Z,101710.97
2023-03-03T06:07:11.139Z,101719.06
2023-03-03T06:09:42.539Z,101720.41
2023-03-03T06:12:14.110Z,101738.50
2023-03-03T06:14:45.472Z,101743.47
2023-03-03T06:17:16.985Z,101725.72
2023-03-03T06:19:48.475Z,101717.72
2023-03-03T06:22:19.791Z,101739.28
2023-03-03T06:24:52.524Z,101732.56
2023-03-03T06:27:23.924Z,101730.00
2023-03-03T06:29:55.288Z,101731.91
2023-03-03T06:32:26.810Z,101721.25
2023-03-03T06:34:58.247Z,101722.72
2023-03-03T06:37:29.643Z,101760.53
2023-03-03T06:40:00.915Z,101746.97
2023-03-03T06:42:32.251Z,101764.50
2023-03-03T06:45:03.984Z,101738.38
2023-03-03T06:47:35.389Z,101777.44
2023-03-03T06:50:07.515Z,101759.06
2023-03-03T06:52:38.983Z,101770.69
2023-03-03T06:55:13.727Z,101763.69
2023-03-03T06:57:45.047Z,101768.69
2023-03-03T07:00:24.475Z,101766.97
2023-03-03T07:03:08.211Z,101757.97
2023-03-03T07:05:39.758Z,101765.81
2023-03-03T07:08:17.022Z,101761.47
2023-03-03T07:10:49.553Z,101756.75
2023-03-03T07:13:26.799Z,101782.50
2023-03-03T07:16:02.226Z,101773.16
2023-03-03T07:18:51.075Z,101781.22
2023-03-03T07:21:33.061Z,101781.25
2023-03-03T07:24:27.567Z,101786.59
2023-03-03T07:27:19.192Z,101788.06
2023-03-03T07:29:52.566Z,101793.09
2023-03-03T07:32:34.959Z,101789.75
2023-03-03T07:35:26.879Z,101794.31
2023-03-03T07:37:59.289Z,101778.38
2023-03-03T07:40:33.743Z,101792.72
2023-03-03T07:43:29.283Z,101800.22
2023-03-03T07:46:09.768Z,101810.97
2023-03-03T07:48:42.750Z,101797.28
2023-03-03T07:51:28.924Z,101804.47
2023-03-03T07:54:35.746Z,101798.69
2023-03-03T07:57:10.092Z,101796.13
2023-03-03T07:59:53.290Z,101804.84
2023-03-03T08:02:33.400Z,101804.13
2023-03-03T08:05:30.871Z,101800.94
2023-03-03T08:08:16.248Z,101799.19
2023-03-03T08:10:53.062Z,101761.16
2023-03-03T08:13:29.040Z,101802.44
2023-03-03T08:16:09.658Z,101799.63
2023-03-03T08:18:47.680Z,101808.38
2023-03-03T08:21:20.682Z,101813.44
2023-03-03T08:23:53.508Z,101805.56
2023-03-03T08:26:25.649Z,101803.78
2023-03-03T08:28:57.218Z,101777.63
2023-03-03T08:31:40.845Z,101783.50
2023-03-03T08:34:13.160Z,101788.75
2023-03-03T08:36:44.576Z,101790.06
2023-03-03T08:39:16.062Z,101791.25
2023-03-03T08:41:47.799Z,101794.03
2023-03-03T08:44:20.488Z,101771.25
2023-03-03T08:46:51.898Z,101798.03
2023-03-03T08:49:23.213Z,101791.22
2023-03-03T08:51:55.460Z,101785.13
2023-03-03T08:54:26.844Z,101801.22
2023-03-03T08:56:58.123Z,101778.84
2023-03-03T08:59:29.404Z,101789.78
2023-03-03T09:02:00.887Z,101792.91
2023-03-03T09:04:32.288Z,101792.66
2023-03-03T09:07:03.661Z,101784.06
2023-03-03T09:09:37.250Z,101777.81
2023-03-03T09:12:33.966Z,101779.56
2023-03-03T09:15:43.189Z,101785.78
2023-03-03T09:18:18.693Z,101791.25
2023-03-03T09:20:54.824Z,101793.22
2023-03-03T09:24:11.269Z,101791.59
2023-03-03T09:26:48.608Z,101786.19
2023-03-03T09:29:26.095Z,101787.00
2023-03-03T09:31:58.669Z,101795.06
2023-03-03T09:34:35.954Z,101796.13
2023-03-03T09:37:26.390Z,101807.19
2023-03-03T09:39:58.353Z,101788.28
2023-03-03T09:42:42.921Z,101798.47
2023-03-03T09:45:26.749Z,101793.50
2023-03-03T09:48:14.646Z,101807.63
2023-03-03T09:51:12.837Z,101813.00
2023-03-03T09:54:03.066Z,101815.06
2023-03-03T09:56:42.560Z,101819.03
2023-03-03T09:59:32.511Z,101818.47
2023-03-03T10:02:31.432Z,101812.38
2023-03-03T10:05:32.927Z,101823.03
2023-03-03T10:08:27.086Z,101810.00
2023-03-03T10:11:46.368Z,101813.00
2023-03-03T10:14:29.784Z,101814.88
2023-03-03T10:17:09.617Z,101818.34
2023-03-03T10:20:09.533Z,101805.91
2023-03-03T10:22:49.826Z,101810.22
2023-03-03T10:25:53.476Z,101811.97
2023-03-03T10:28:54.539Z,101819.06
2023-03-03T10:31:46.846Z,101818.03
2023-03-03T10:34:37.397Z,101815.50
2023-03-03T10:37:47.601Z,101812.31
2023-03-03T10:40:45.379Z,101813.06
2023-03-03T10:43:35.308Z,101811.72
2023-03-03T10:46:38.888Z,101811.63
2023-03-03T10:49:34.693Z,101809.69
2023-03-03T10:52:22.378Z,101803.56
2023-03-03T10:55:24.386Z,101806.50
2023-03-03T10:58:05.003Z,101804.09
2023-03-03T11:00:45.302Z,101799.47
2023-03-03T11:03:38.159Z,101807.94
2023-03-03T11:06:25.312Z,101809.63
2023-03-03T11:09:01.965Z,101792.22
2023-03-03T11:11:54.208Z,101807.38
2023-03-03T11:14:47.844Z,101788.19
2023-03-03T11:17:49.756Z,101788.81
2023-03-03T11:20:38.600Z,101792.81
2023-03-03T11:23:40.753Z,101785.03
2023-03-03T11:26:33.371Z,101763.25
2023-03-03T11:29:28.828Z,101782.38
2023-03-03T11:32:27.256Z,101778.19
2023-03-03T11:35:29.144Z,101775.56
2023-03-03T11:38:31.478Z,101769.44
2023-03-03T11:41:23.358Z,101768.66
2023-03-03T11:44:00.566Z,101762.53
2023-03-03T11:46:42.614Z,101746.72
2023-03-03T11:49:25.063Z,101757.50
2023-03-03T11:52:24.139Z,101763.81
2023-03-03T11:55:07.767Z,101758.50
2023-03-03T11:57:45.534Z,101750.56
2023-03-03T12:00:31.854Z,101751.53
2023-03-03T12:03:47.797Z,101750.75
2023-03-03T12:06:24.893Z,101748.06
2023-03-03T12:09:12.838Z,101742.56
2023-03-03T12:12:00.794Z,101739.88
2023-03-03T12:14:50.698Z,101729.50
2023-03-03T12:17:36.886Z,101728.88
2023-03-03T12:20:13.425Z,101726.50
2023-03-03T12:23:06.898Z,101716.94
2023-03-03T12:25:46.131Z,101695.78
2023-03-03T12:28:27.600Z,101706.44
2023-03-03T12:31:22.760Z,101704.75
2023-03-03T12:34:17.281Z,101702.97
2023-03-03T12:37:31.709Z,101688.81
2023-03-03T12:40:08.726Z,101695.91
2023-03-03T12:42:58.763Z,101688.81
2023-03-03T12:45:50.777Z,101686.13
2023-03-03T12:48:27.929Z,101656.97
2023-03-03T12:51:14.458Z,101677.28
2023-03-03T12:54:12.792Z,101683.47
2023-03-03T12:56:57.770Z,101680.75
2023-03-03T12:59:51.822Z,101677.19
2023-03-03T13:02:46.823Z,101669.19
2023-03-03T13:05:59.873Z,101673.59
2023-03-03T13:08:40.078Z,101668.31
2023-03-03T13:11:29.605Z,101664.75
2023-03-03T13:14:31.573Z,101662.09
2023-03-03T13:17:19.627Z,101657.66
2023-03-03T13:20:04.688Z,101643.41
2023-03-03T13:22:50.960Z,101661.09
2023-03-03T13:25:53.665Z,101658.50
2023-03-03T13:28:40.457Z,101654.13
2023-03-03T13:31:21.727Z,101648.81
2023-03-03T13:33:56.327Z,101645.22
2023-03-03T13:36:55.970Z,101659.28
2023-03-03T13:39:35.003Z,101640.69
2023-03-03T13:42:29.730Z,101654.91
2023-03-03T13:45:03.042Z,101650.50
2023-03-03T13:47:37.381Z,101644.31
2023-03-03T13:50:30.291Z,101646.06
2023-03-03T13:53:20.078Z,101631.91
2023-03-03T13:56:33.511Z,101630.09
2023-03-03T13:59:42.343Z,101628.28
2023-03-03T14:02:47.959Z,101623.88
2023-03-03T14:05:28.387Z,101626.59
2023-03-03T14:08:07.809Z,101620.44
2023-03-03T14:11:02.473Z,101622.22
2023-03-03T14:13:55.115Z,101623.97
2023-03-03T14:16:51.350Z,101615.91
2023-03-03T14:19:34.463Z,101615.88
2023-03-03T14:22:23.935Z,101610.59
2023-03-03T14:25:12.365Z,101602.66
2023-03-03T14:27:46.707Z,101599.13
2023-03-03T14:30:36.526Z,101590.31
2023-03-03T14:33:07.907Z,101599.06
2023-03-03T14:35:42.437Z,101590.25
2023-03-03T14:38:23.625Z,101574.34
2023-03-03T14:41:18.021Z,101586.66
2023-03-03T14:44:22.872Z,101522.94
2023-03-03T14:47:10.253Z,101578.63
2023-03-03T14:49:41.762Z,101564.50
2023-03-03T14:52:15.821Z,101576.91
2023-03-03T14:54:56.077Z,101541.50
2023-03-03T14:57:46.057Z,101566.28
2023-03-03T15:00:23.114Z,101562.72
2023-03-03T15:03:27.150Z,101560.09
2023-03-03T15:05:58.631Z,101566.25
2023-03-03T15:08:36.031Z,101555.63
2023-03-03T15:11:27.141Z,101559.97
2023-03-03T15:14:14.756Z,101555.56
2023-03-03T15:16:46.596Z,101543.16
2023-03-03T15:19:37.922Z,101545.75
2023-03-03T15:22:18.863Z,101537.84
2023-03-03T15:25:00.197Z,101541.38
2023-03-03T15:28:06.057Z,101540.56
2023-03-03T15:30:47.060Z,101537.03
2023-03-03T15:33:34.506Z,101511.41
2023-03-03T15:36:21.170Z,101530.97
2023-03-03T15:39:01.675Z,101537.16
2023-03-03T15:41:47.724Z,101531.91
2023-03-03T15:44:37.177Z,101511.53
2023-03-03T15:47:21.394Z,101523.84
2023-03-03T15:50:11.610Z,101522.88
2023-03-03T15:52:56.262Z,101524.59
2023-03-03T15:55:55.449Z,101521.00
2023-03-03T15:59:07.739Z,101521.84
2023-03-03T16:02:11.883Z,101520.03
2023-03-03T16:04:54.778Z,101519.06
2023-03-03T16:07:37.197Z,101522.53
2023-03-03T16:10:22.376Z,101524.16
2023-03-03T16:13:21.794Z,101519.72
2023-03-03T16:16:02.367Z,101516.13
2023-03-03T16:19:14.918Z,101506.28
2023-03-03T16:22:17.227Z,101523.88
2023-03-03T16:25:09.742Z,101521.13
2023-03-03T16:27:53.739Z,101521.06
2023-03-03T16:30:37.499Z,101524.63
2023-03-03T16:33:19.490Z,101515.75
2023-03-03T16:36:12.735Z,101493.56
2023-03-03T16:38:53.049Z,101517.41
2023-03-03T16:41:52.914Z,101511.28
2023-03-03T16:44:38.747Z,101498.84
2023-03-03T16:47:26.822Z,101509.44
2023-03-03T16:50:17.800Z,101518.28
2023-03-03T16:52:56.778Z,101523.56
2023-03-03T16:55:48.435Z,101511.16
2023-03-03T16:58:33.818Z,101515.59
2023-03-03T17:01:31.331Z,101520.88
2023-03-03T17:04:30.109Z,101473.94
2023-03-03T17:07:23.071Z,101517.28
2023-03-03T17:10:20.675Z,101523.44
2023-03-03T17:13:15.810Z,101509.31
2023-03-03T17:16:02.957Z,101526.97
2023-03-03T17:18:50.141Z,101530.47
2023-03-03T17:21:30.873Z,101519.00
2023-03-03T17:24:21.094Z,101526.00
2023-03-03T17:27:15.027Z,101510.06
2023-03-03T17:29:54.988Z,101544.41
2023-03-03T17:32:57.973Z,101523.28
2023-03-03T17:35:54.116Z,101533.84
2023-03-03T17:38:34.727Z,101486.03
2023-03-03T17:41:14.873Z,101497.56
2023-03-03T17:43:53.202Z,101524.91
2023-03-03T17:46:39.060Z,101537.22
2023-03-03T17:49:34.782Z,101539.00
2023-03-03T17:52:08.985Z,101539.03
2023-03-03T17:54:54.176Z,101527.47
2023-03-03T17:57:45.409Z,101525.81
2023-03-03T18:00:37.748Z,101528.41
2023-03-03T18:03:34.427Z,101523.94
2023-03-03T18:06:32.559Z,101527.47
2023-03-03T18:09:15.615Z,101526.53
2023-03-03T18:12:12.123Z,101530.81
2023-03-03T18:15:11.515Z,101531.56
2023-03-03T18:17:46.283Z,101533.22
2023-03-03T18:20:34.597Z,101529.66
2023-03-03T18:23:28.117Z,101533.16
2023-03-03T18:26:08.077Z,101526.13
2023-03-03T18:29:06.672Z,101534.94
2023-03-03T18:31:57.751Z,101525.31
2023-03-03T18:34:37.161Z,101534.13
2023-03-03T18:37:31.466Z,101535.00
2023-03-03T18:40:02.692Z,101530.63
2023-03-03T18:42:40.204Z,101512.94
2023-03-03T18:45:17.592Z,101533.28
2023-03-03T18:48:01.096Z,101527.06
2023-03-03T18:50:35.042Z,101524.41
2023-03-03T18:53:19.786Z,101526.16
2023-03-03T18:55:59.302Z,101515.63
2023-03-03T18:58:38.328Z,101502.31
2023-03-03T19:01:31.602Z,101516.53
2023-03-03T19:04:16.275Z,101520.00
2023-03-03T19:06:47.511Z,101528.72
2023-03-03T19:09:40.187Z,101494.25
2023-03-03T19:12:13.557Z,101499.47
2023-03-03T19:14:47.476Z,101518.00
2023-03-03T19:17:18.698Z,101519.72
2023-03-03T19:20:12.294Z,101497.56
2023-03-03T19:23:05.279Z,101515.22
2023-03-03T19:25:37.894Z,101511.63
2023-03-03T19:28:15.086Z,101510.69
2023-03-03T19:31:17.117Z,101501.91
2023-03-03T19:34:07.388Z,101502.78
2023-03-03T19:37:15.865Z,101505.38
2023-03-03T19:39:57.819Z,101506.19
2023-03-03T19:43:00.870Z,101508.75
2023-03-03T19:45:49.151Z,101512.16
2023-03-03T19:48:20.392Z,101512.25
2023-03-03T19:51:10.245Z,101512.28
2023-03-03T19:53:58.766Z,101514.75
2023-03-03T19:56:47.203Z,101512.00
2023-03-03T19:59:40.478Z,101507.31
2023-03-03T20:02:28.401Z,101488.59
2023-03-03T20:05:24.838Z,101510.63
2023-03-03T20:08:24.621Z,101507.00
2023-03-03T20:11:17.307Z,101496.41
2023-03-03T20:14:00.992Z,101502.63
2023-03-03T20:16:42.697Z,101509.72
2023-03-03T20:19:28.727Z,101498.34
2023-03-03T20:22:34.913Z,101489.47
2023-03-03T20:25:21.507Z,101505.38
2023-03-03T20:28:21.452Z,101497.44
2023-03-03T20:31:14.701Z,101492.88
2023-03-03T20:34:07.862Z,101504.28
2023-03-03T20:37:02.161Z,101497.28
2023-03-03T20:40:02.195Z,101500.84
2023-03-03T20:42:49.867Z,101500.03
2023-03-03T20:46:10.483Z,101506.31
2023-03-03T20:49:19.157Z,101503.78
2023-03-03T20:52:30.112Z,101498.47
2023-03-03T20:55:27.802Z,101510.03
2023-03-03T20:58:20.819Z,101505.72
2023-03-03T21:01:10.401Z,101499.69
2023-03-03T21:03:44.769Z,101493.59
2023-03-03T21:06:19.494Z,101494.53
2023-03-03T21:08:56.063Z,101488.38
2023-03-03T21:11:30.394Z,101491.88
2023-03-03T21:14:16.621Z,101484.00
2023-03-03T21:16:50.241Z,101484.84
2023-03-03T21:19:31.634Z,101488.41
2023-03-03T21:22:03.423Z,101483.19
2023-03-03T21:24:50.080Z,101485.00
2023-03-03T21:27:31.344Z,101485.00
2023-03-03T21:30:07.841Z,101483.31
2023-03-03T21:32:47.866Z,101478.06
2023-03-03T21:35:21.648Z,101476.34
2023-03-03T21:37:57.465Z,101474.63
2023-03-03T21:40:30.185Z,101467.59
2023-03-03T21:43:01.482Z,101481.75
2023-03-03T21:45:32.809Z,101464.22
2023-03-03T21:48:04.546Z,101463.31
2023-03-03T21:50:36.052Z,101473.03
2023-03-03T21:53:07.312Z,101451.94
2023-03-03T21:55:38.574Z,101468.66
2023-03-03T21:58:09.880Z,101468.69
2023-03-03T22:00:42.803Z,101461.69
2023-03-03T22:03:15.562Z,101460.78
2023-03-03T22:05:48.914Z,101452.03
2023-03-03T22:08:23.245Z,101440.44
2023-03-03T22:10:56.094Z,101444.84
2023-03-03T22:13:27.671Z,101464.28
2023-03-03T22:15:59.168Z,101440.44
2023-03-03T22:18:30.482Z,101453.72
2023-03-03T22:21:01.838Z,101446.66
2023-03-03T22:23:33.252Z,101453.72
2023-03-03T22:26:04.654Z,101427.19
2023-03-03T22:28:35.938Z,101452.84
2023-03-03T22:31:07.492Z,101451.09
2023-03-03T22:33:38.856Z,101455.47
2023-03-03T22:36:10.596Z,101444.84
2023-03-03T22:38:42.330Z,101453.75
2023-03-03T22:41:14.395Z,101428.19
2023-03-03T22:43:47.799Z,101452.88
2023-03-03T22:46:19.072Z,101429.94
2023-03-03T22:48:50.506Z,101423.75
2023-03-03T22:51:22.088Z,101450.25
2023-03-03T22:53:53.367Z,101438.88
2023-03-03T22:56:24.797Z,101441.53
2023-03-03T22:58:56.132Z,101442.41
2023-03-03T23:01:27.612Z,101436.28
2023-03-03T23:03:58.888Z,101440.66
2023-03-03T23:06:30.155Z,101436.22
2023-03-03T23:09:01.468Z,101423.03
2023-03-03T23:11:32.741Z,101431.06
2023-03-03T23:14:04.065Z,101429.34
2023-03-03T23:16:35.326Z,101419.66
2023-03-03T23:19:06.652Z,101424.06
2023-03-03T23:21:38.032Z,101409.19
2023-03-03T23:24:11.023Z,101394.97
2023-03-03T23:26:42.324Z,101429.38
2023-03-03T23:29:13.671Z,101415.31
2023-03-03T23:31:45.170Z,101418.88
2023-03-03T23:34:16.506Z,101417.13
2023-03-03T23:36:47.990Z,101413.63
2023-03-03T23:39:19.312Z,101386.19
2023-03-03T23:41:50.600Z,101423.31
2023-03-03T23:44:21.933Z,101415.41
2023-03-03T23:46:53.233Z,101410.16
2023-03-03T23:49:24.944Z,101389.78
2023-03-03T23:51:56.229Z,101402.19
2023-03-03T23:54:27.845Z,101383.69
2023-03-03T23:56:59.165Z,101400.47
2023-03-03T23:59:30.465Z,101404.06
